BAW970 EGLL-EDDH
Flight info
| Callsign | BAW970 |
|---|---|
| Flight time | N/A |
| Altitude | 35000 |
| Route | BPK Q295 SOMVA DCT MAVAS DCT VALAM DCT GASTU DCT OSTOR/N0374F230 T904 RIBSO RIBSO3P |
| Aircraft | A20N/M-SDGHIJ1LRWXY/SB1 |
Departure
| Time | N/A |
|---|---|
| Airport | London Heathrow Airport (EGLL) |
Arrival
| Time | 2026-04-24 19:16 |
|---|---|
| Airport | Hamburg Helmut Schmidt Airport (EDDH) |
| Time | Latitude | Longitude | Altitude | Speed | Heading |
|---|---|---|---|---|---|
| 2026-04-24 18:54 | 53.67988 | 10.08884 | 1881 ft | 168 kts | 237° |
| 2026-04-24 18:55 | 53.66493 | 10.05849 | 1409 ft | 165 kts | 237° |
| 2026-04-24 18:55 | 53.65764 | 10.04365 | 1182 ft | 163 kts | 236° |
| 2026-04-24 18:55 | 53.65060 | 10.02937 | 876 ft | 153 kts | 236° |
| 2026-04-24 18:56 | 53.64413 | 10.01630 | 602 ft | 142 kts | 234° |
| 2026-04-24 18:56 | 53.63790 | 10.00326 | 203 ft | 138 kts | 220° |
| 2026-04-24 18:56 | 53.63199 | 9.99177 | 61 ft | 118 kts | 241° |
| 2026-04-24 18:56 | 53.62633 | 9.98094 | 467 ft | 132 kts | 231° |
| 2026-04-24 18:57 | 53.61950 | 9.96891 | 1180 ft | 145 kts | 236° |
| 2026-04-24 18:57 | 53.61293 | 9.95503 | 1887 ft | 159 kts | 240° |
| 2026-04-24 18:57 | 53.60679 | 9.94072 | 2939 ft | 142 kts | 246° |
| 2026-04-24 18:57 | 53.60137 | 9.92689 | 3688 ft | 147 kts | 250° |
| 2026-04-24 18:58 | 53.59619 | 9.91151 | 4352 ft | 158 kts | 252° |
| 2026-04-24 18:58 | 53.58926 | 9.89170 | 4050 ft | 235 kts | 238° |
| 2026-04-24 18:58 | 53.57695 | 9.86944 | 4003 ft | 279 kts | 230° |
| 2026-04-24 18:58 | 53.56082 | 9.85062 | 3993 ft | 279 kts | 205° |
| 2026-04-24 18:59 | 53.54277 | 9.84626 | 3992 ft | 250 kts | 173° |
| 2026-04-24 18:59 | 53.52694 | 9.85676 | 4003 ft | 247 kts | 139° |
| 2026-04-24 18:59 | 53.51665 | 9.87857 | 4002 ft | 236 kts | 105° |
| 2026-04-24 18:59 | 53.51470 | 9.90489 | 4005 ft | 226 kts | 76° |
| 2026-04-24 19:00 | 53.51691 | 9.93081 | 4005 ft | 222 kts | 74° |
| 2026-04-24 19:00 | 53.51926 | 9.95654 | 4010 ft | 226 kts | 74° |
| 2026-04-24 19:00 | 53.52164 | 9.98236 | 3994 ft | 221 kts | 74° |
| 2026-04-24 19:00 | 53.52402 | 10.00797 | 3997 ft | 223 kts | 74° |
| 2026-04-24 19:01 | 53.52639 | 10.03344 | 3999 ft | 224 kts | 74° |
| 2026-04-24 19:01 | 53.52881 | 10.05916 | 3998 ft | 223 kts | 74° |
| 2026-04-24 19:01 | 53.53136 | 10.08572 | 3996 ft | 236 kts | 74° |
| 2026-04-24 19:01 | 53.53409 | 10.11282 | 3986 ft | 238 kts | 74° |
| 2026-04-24 19:02 | 53.53595 | 10.13138 | 4002 ft | 239 kts | 74° |
| 2026-04-24 19:02 | 53.54286 | 10.16530 | 4008 ft | 228 kts | 50° |
| 2026-04-24 19:02 | 53.55172 | 10.18736 | 3995 ft | 228 kts | 49° |
| 2026-04-24 19:02 | 53.56069 | 10.20932 | 4001 ft | 228 kts | 49° |
| 2026-04-24 19:03 | 53.56971 | 10.23128 | 4001 ft | 228 kts | 49° |
| 2026-04-24 19:03 | 53.57868 | 10.25319 | 3987 ft | 227 kts | 49° |
| 2026-04-24 19:03 | 53.58768 | 10.27510 | 4000 ft | 227 kts | 49° |
| 2026-04-24 19:03 | 53.59686 | 10.29669 | 3987 ft | 226 kts | 42° |
| 2026-04-24 19:04 | 53.60840 | 10.31432 | 3986 ft | 224 kts | 34° |
| 2026-04-24 19:04 | 53.62029 | 10.33105 | 3986 ft | 222 kts | 34° |
| 2026-04-24 19:04 | 53.63209 | 10.34767 | 3990 ft | 221 kts | 34° |
| 2026-04-24 19:04 | 53.64394 | 10.36429 | 3987 ft | 223 kts | 34° |
| 2026-04-24 19:05 | 53.65589 | 10.38099 | 3980 ft | 223 kts | 34° |
| 2026-04-24 19:05 | 53.66784 | 10.39776 | 3956 ft | 223 kts | 34° |
| 2026-04-24 19:05 | 53.68055 | 10.41161 | 3964 ft | 215 kts | 12° |
| 2026-04-24 19:05 | 53.69507 | 10.41203 | 3952 ft | 210 kts | 340° |
| 2026-04-24 19:06 | 53.70693 | 10.39830 | 3956 ft | 211 kts | 309° |
| 2026-04-24 19:06 | 53.71487 | 10.37740 | 3958 ft | 212 kts | 304° |
| 2026-04-24 19:06 | 53.72253 | 10.35614 | 3954 ft | 212 kts | 304° |
| 2026-04-24 19:06 | 53.73013 | 10.33486 | 3984 ft | 212 kts | 304° |
| 2026-04-24 19:07 | 53.73769 | 10.31355 | 3983 ft | 211 kts | 304° |
| 2026-04-24 19:07 | 53.74457 | 10.29163 | 3982 ft | 214 kts | 290° |
| 2026-04-24 19:07 | 53.74563 | 10.27499 | 3948 ft | 219 kts | 269° |
| 2026-04-24 19:07 | 53.74184 | 10.24177 | 3856 ft | 209 kts | 264° |
| 2026-04-24 19:08 | 53.73846 | 10.21895 | 3814 ft | 193 kts | 257° |
| 2026-04-24 19:08 | 53.73264 | 10.19917 | 3681 ft | 184 kts | 245° |
| 2026-04-24 19:08 | 53.72532 | 10.18157 | 3417 ft | 181 kts | 245° |
| 2026-04-24 19:08 | 53.72230 | 10.16246 | 3130 ft | 171 kts | 285° |
| 2026-04-24 19:09 | 53.72855 | 10.14570 | 3454 ft | 179 kts | 328° |
| 2026-04-24 19:09 | 53.74052 | 10.13990 | 3857 ft | 181 kts | 2° |
| 2026-04-24 19:09 | 53.75227 | 10.14775 | 3981 ft | 189 kts | 26° |
| 2026-04-24 19:09 | 53.76338 | 10.15891 | 3988 ft | 179 kts | 24° |
| 2026-04-24 19:10 | 53.77365 | 10.16923 | 3978 ft | 164 kts | 24° |
| 2026-04-24 19:10 | 53.78364 | 10.17932 | 3992 ft | 170 kts | 24° |
| 2026-04-24 19:10 | 53.79361 | 10.18941 | 3897 ft | 165 kts | 25° |
| 2026-04-24 19:10 | 53.80120 | 10.20422 | 3609 ft | 181 kts | 64° |
| 2026-04-24 19:11 | 53.80138 | 10.22602 | 3316 ft | 197 kts | 105° |
| 2026-04-24 19:11 | 53.79308 | 10.24463 | 3048 ft | 201 kts | 149° |
| 2026-04-24 19:11 | 53.77985 | 10.25069 | 2913 ft | 199 kts | 191° |
| 2026-04-24 19:11 | 53.76677 | 10.24501 | 2841 ft | 194 kts | 205° |
| 2026-04-24 19:12 | 53.75498 | 10.23509 | 2651 ft | 185 kts | 223° |
| 2026-04-24 19:12 | 53.74550 | 10.22113 | 2475 ft | 178 kts | 234° |
| 2026-04-24 19:12 | 53.73733 | 10.20569 | 2295 ft | 174 kts | 237° |
| 2026-04-24 19:12 | 53.72965 | 10.19013 | 2120 ft | 172 kts | 237° |
| 2026-04-24 19:13 | 53.72445 | 10.17951 | 2093 ft | 175 kts | 237° |
| 2026-04-24 19:13 | 53.71408 | 10.15840 | 2487 ft | 180 kts | 238° |
| 2026-04-24 19:13 | 53.70603 | 10.14202 | 2914 ft | 183 kts | 238° |
| 2026-04-24 19:13 | 53.69791 | 10.12535 | 2859 ft | 184 kts | 239° |
| 2026-04-24 19:14 | 53.69008 | 10.10803 | 2398 ft | 186 kts | 233° |
| 2026-04-24 19:14 | 53.68192 | 10.09144 | 1928 ft | 181 kts | 228° |
| 2026-04-24 19:14 | 53.67377 | 10.07615 | 1498 ft | 168 kts | 227° |
| 2026-04-24 19:14 | 53.66624 | 10.06137 | 956 ft | 164 kts | 231° |
| 2026-04-24 19:15 | 53.65991 | 10.04707 | 699 ft | 142 kts | 227° |
| 2026-04-24 19:15 | 53.65364 | 10.03536 | 568 ft | 131 kts | 230° |
| 2026-04-24 19:15 | 53.64791 | 10.02343 | 418 ft | 131 kts | 230° |
| 2026-04-24 19:15 | 53.64213 | 10.01196 | 284 ft | 128 kts | 228° |
| 2026-04-24 19:16 | 53.63076 | 9.98914 | 48 ft | 100 kts | 231° |
| 2026-04-24 19:16 | 53.62828 | 9.98403 | 48 ft | 23 kts | 223° |
| 2026-04-24 19:16 | 53.62701 | 9.98419 | 46 ft | 19 kts | 139° |
| 2026-04-24 19:17 | 53.62686 | 9.98439 | 46 ft | 0 kts | 142° |
| 2026-04-24 19:19 | 53.62680 | 9.98446 | 46 ft | 5 kts | 143° |
| 2026-04-24 19:19 | 53.62685 | 9.98542 | 45 ft | 12 kts | 49° |
| 2026-04-24 19:20 | 53.62750 | 9.98673 | 46 ft | 17 kts | 51° |
| 2026-04-24 19:20 | 53.62831 | 9.98840 | 46 ft | 18 kts | 51° |
| 2026-04-24 19:20 | 53.62920 | 9.99019 | 47 ft | 22 kts | 44° |
| 2026-04-24 19:20 | 53.62997 | 9.99171 | 47 ft | 18 kts | 50° |
| 2026-04-24 19:21 | 53.63068 | 9.99326 | 47 ft | 10 kts | 57° |
| 2026-04-24 19:21 | 53.63083 | 9.99365 | 47 ft | 2 kts | 56° |
| 2026-04-24 19:21 | 53.63105 | 9.99416 | 48 ft | 9 kts | 55° |
| 2026-04-24 19:21 | 53.63149 | 9.99528 | 48 ft | 14 kts | 58° |
| 2026-04-24 19:22 | 53.63185 | 9.99596 | 47 ft | 12 kts | 52° |
| 2026-04-24 19:22 | 53.63214 | 9.99654 | 48 ft | 0 kts | 47° |
| 2026-04-24 19:24 | 53.63227 | 9.99676 | 47 ft | 7 kts | 42° |
| 2026-04-24 19:25 | 53.63250 | 9.99714 | 48 ft | 5 kts | 45° |
| 2026-04-24 19:25 | 53.63283 | 9.99772 | 46 ft | 9 kts | 50° |
| 2026-04-24 19:25 | 53.63332 | 9.99871 | 49 ft | 13 kts | 51° |
| 2026-04-24 19:25 | 53.63397 | 10.00003 | 50 ft | 16 kts | 47° |
| 2026-04-24 19:26 | 53.63450 | 10.00107 | 51 ft | 7 kts | 50° |
| 2026-04-24 19:26 | 53.63452 | 10.00111 | 51 ft | 0 kts | 50° |
| 2026-04-24 19:26 | 53.63446 | 10.00137 | 51 ft | 5 kts | 113° |
| 2026-04-24 19:26 | 53.63436 | 10.00165 | 49 ft | 2 kts | 126° |
| 2026-04-24 19:27 | 53.63412 | 10.00184 | 51 ft | 6 kts | 165° |
| 2026-04-24 19:27 | 53.63385 | 10.00192 | 47 ft | 5 kts | 174° |
| 2026-04-24 19:27 | 53.63350 | 10.00197 | 50 ft | 0 kts | 172° |
| 2026-04-24 19:28 | 53.63347 | 10.00201 | 50 ft | 2 kts | 155° |
| 2026-04-24 19:28 | 53.63328 | 10.00228 | 50 ft | 8 kts | 145° |
| 2026-04-24 19:28 | 53.63308 | 10.00235 | 50 ft | 6 kts | 175° |
| 2026-04-24 19:28 | 53.63253 | 10.00241 | 49 ft | 10 kts | 176° |
| 2026-04-24 19:29 | 53.63093 | 10.00260 | 47 ft | 6 kts | 179° |
| 2026-04-24 19:29 | 53.63078 | 10.00259 | 44 ft | 6 kts | 180° |
| 2026-04-24 19:29 | 53.63055 | 10.00282 | 47 ft | 0 kts | 118° |
| 2026-04-24 19:30 | 53.63050 | 10.00290 | 47 ft | 4 kts | 133° |
| 2026-04-24 19:30 | 53.63032 | 10.00309 | 46 ft | 0 kts | 140° |
| 2026-04-24 19:31 | 53.63032 | 10.00310 | 46 ft | 0 kts | 133° |
| 2026-04-24 19:31 | 53.63032 | 10.00314 | 46 ft | 0 kts | 108° |
| 2026-04-24 19:31 | 53.63032 | 10.00334 | 47 ft | 1 kts | 93° |
| 2026-04-24 19:31 | 53.63031 | 10.00346 | 47 ft | 0 kts | 99° |
| 2026-04-24 19:32 | 53.63029 | 10.00356 | 47 ft | 1 kts | 107° |
| 2026-04-24 19:32 | 53.63026 | 10.00366 | 46 ft | 0 kts | 115° |
| 2026-04-24 19:32 | 53.63024 | 10.00372 | 43 ft | 0 kts | 119° |
| 2026-04-24 19:32 | 53.63024 | 10.00374 | 44 ft | 0 kts | 120° |